Time;durP1;ratioP1;P1;durP2;ratioP2;P2;SDS_P1;SDS_P2;PMS_P1;PMS_P2;Temp;Humidity;BMP_temperature;BMP_pressure;BME280_temperature;BME280_humidity;BME280_pressure;Samples;Min_cycle;Max_cycle;Signal;HPM_P1;HPM_P2
2021/03/26 00:00:38;;;;;;;217.77;95.32;;;1.90;99.90;;;;;;6153701;23;20479;-71
2021/03/26 00:03:15;;;;;;;223.82;94.60;;;1.90;99.90;;;;;;6183521;23;20451;-70
2021/03/26 00:05:43;;;;;;;207.50;93.45;;;1.80;99.90;;;;;;6153528;23;20594;-71
2021/03/26 00:08:11;;;;;;;218.73;94.38;;;1.80;99.90;;;;;;6180217;23;20021;-71
2021/03/26 00:10:37;;;;;;;204.70;91.65;;;1.90;99.90;;;;;;6178187;23;20076;-71
2021/03/26 00:13:04;;;;;;;201.73;90.57;;;1.90;99.90;;;;;;6179850;23;20048;-71
2021/03/26 00:15:30;;;;;;;224.95;93.45;;;2.00;99.90;;;;;;6180200;23;20099;-71
2021/03/26 00:17:56;;;;;;;209.00;89.70;;;2.00;99.90;;;;;;6180280;23;20024;-71
2021/03/26 00:20:22;;;;;;;211.00;94.68;;;2.10;99.90;;;;;;6153218;23;20498;-71
2021/03/26 00:22:48;;;;;;;213.70;90.00;;;2.20;99.90;;;;;;6157173;23;20020;-71
2021/03/26 00:25:15;;;;;;;197.18;86.32;;;2.20;99.90;;;;;;6153697;23;20059;-71
2021/03/26 00:27:41;;;;;;;210.38;91.97;;;2.30;99.90;;;;;;6179926;23;20021;-71
2021/03/26 00:30:09;;;;;;;208.55;89.88;;;2.30;99.90;;;;;;6179501;23;20037;-71
2021/03/26 00:32:36;;;;;;;209.48;91.80;;;2.40;99.90;;;;;;6183919;23;20075;-70
2021/03/26 00:35:05;;;;;;;214.75;92.82;;;2.50;99.90;;;;;;6179871;23;20057;-71
2021/03/26 00:37:32;;;;;;;207.85;91.55;;;2.60;99.90;;;;;;6153738;23;20074;-71
2021/03/26 00:39:58;;;;;;;212.23;92.30;;;2.60;99.90;;;;;;6153228;23;20495;-71
2021/03/26 00:42:24;;;;;;;201.77;89.43;;;2.60;99.90;;;;;;6153567;23;20028;-71
2021/03/26 00:44:51;;;;;;;218.43;92.75;;;2.70;99.90;;;;;;6178548;23;20105;-71
2021/03/26 00:47:17;;;;;;;208.00;93.47;;;2.70;99.90;;;;;;6180814;23;20028;-71
2021/03/26 00:49:43;;;;;;;213.50;93.78;;;2.70;99.90;;;;;;6153742;23;20471;-71
2021/03/26 00:52:09;;;;;;;217.88;94.55;;;2.70;99.90;;;;;;6153236;23;20143;-71
2021/03/26 00:54:36;;;;;;;192.48;89.30;;;2.80;99.90;;;;;;6179778;23;20021;-71
2021/03/26 00:57:03;;;;;;;206.23;90.22;;;2.80;99.90;;;;;;6155843;23;20028;-71
2021/03/26 00:59:29;;;;;;;205.70;88.57;;;2.80;99.90;;;;;;6153060;23;20367;-71
2021/03/26 01:01:55;;;;;;;186.80;85.85;;;2.90;99.90;;;;;;6179768;23;20048;-71
2021/03/26 01:04:21;;;;;;;177.75;83.68;;;3.00;99.90;;;;;;6153593;23;20059;-71
2021/03/26 01:06:48;;;;;;;180.73;84.75;;;3.10;99.90;;;;;;6181132;23;20044;-71
2021/03/26 01:09:16;;;;;;;185.10;82.55;;;3.20;99.90;;;;;;6153231;23;20566;-71
2021/03/26 01:11:42;;;;;;;185.68;85.18;;;3.20;99.90;;;;;;6179788;23;20025;-71
2021/03/26 01:14:12;;;;;;;177.13;80.65;;;3.20;99.90;;;;;;6179529;23;20017;-71
2021/03/26 01:16:39;;;;;;;179.20;79.93;;;3.30;99.90;;;;;;6182712;23;20472;-71
2021/03/26 01:19:06;;;;;;;178.35;81.47;;;3.40;99.90;;;;;;6179184;23;20419;-71
2021/03/26 01:21:35;;;;;;;175.18;78.18;;;3.40;99.90;;;;;;6153008;23;20028;-72
2021/03/26 01:24:02;;;;;;;176.25;79.78;;;3.40;99.90;;;;;;6179680;23;20053;-71
2021/03/26 01:26:30;;;;;;;180.13;80.93;;;3.50;99.90;;;;;;6156596;23;20047;-71
2021/03/26 01:29:14;;;;;;;173.55;78.13;;;3.40;99.90;;;;;;6179563;23;20466;-70
2021/03/26 01:31:46;;;;;;;;;;;3.40;99.90;;;;;;6184329;23;20025;-70
2021/03/26 01:34:13;;;;;;;152.70;70.22;;;3.50;99.90;;;;;;6153234;23;20357;-70
2021/03/26 01:36:45;;;;;;;162.38;72.70;;;3.50;99.90;;;;;;6181206;23;20025;-70
2021/03/26 01:39:17;;;;;;;155.10;72.50;;;3.50;99.90;;;;;;6179088;23;20104;-71
2021/03/26 01:41:48;;;;;;;166.30;74.40;;;3.50;99.90;;;;;;6181365;23;20557;-71
2021/03/26 01:44:28;;;;;;;164.38;74.07;;;3.50;99.90;;;;;;6177996;23;20051;-71
2021/03/26 01:47:02;;;;;;;164.93;74.47;;;3.50;99.90;;;;;;6152797;23;20025;-71
2021/03/26 01:49:29;;;;;;;157.25;73.22;;;3.60;99.90;;;;;;6154880;23;20095;-71
2021/03/26 01:52:00;;;;;;;156.75;70.57;;;3.50;99.90;;;;;;6156900;23;20148;-71
2021/03/26 01:54:27;;;;;;;174.77;75.55;;;3.50;99.90;;;;;;6181093;23;20025;-71
2021/03/26 01:56:54;;;;;;;163.50;73.53;;;3.50;99.90;;;;;;6154899;23;20029;-71
2021/03/26 01:59:44;;;;;;;163.18;70.03;;;3.50;99.90;;;;;;6160626;23;20150;-71
2021/03/26 02:02:17;;;;;;;169.07;73.65;;;3.60;99.90;;;;;;6155250;23;20021;-71
2021/03/26 02:05:07;;;;;;;177.77;76.53;;;3.70;99.90;;;;;;6181702;23;20336;-71
2021/03/26 02:07:52;;;;;;;169.95;72.97;;;3.70;99.90;;;;;;6154895;23;20036;-71
2021/03/26 02:10:24;;;;;;;170.48;76.15;;;3.70;99.90;;;;;;6155017;23;20487;-71
2021/03/26 02:13:23;;;;;;;167.15;73.55;;;3.70;99.90;;;;;;6149786;23;20026;-71
2021/03/26 02:15:51;;;;;;;156.13;71.65;;;3.60;99.90;;;;;;6174446;23;20543;-71
2021/03/26 02:18:29;;;;;;;155.52;72.15;;;3.70;99.90;;;;;;6151566;23;20108;-71
2021/03/26 02:21:04;;;;;;;159.32;72.65;;;3.70;99.90;;;;;;6149397;23;20052;-71
2021/03/26 02:23:33;;;;;;;165.73;76.78;;;3.80;99.90;;;;;;6153205;23;20037;-71
2021/03/26 02:26:38;;;;;;;160.75;76.13;;;3.80;99.90;;;;;;6150068;23;20060;-70
2021/03/26 02:29:22;;;;;;;150.95;72.65;;;3.80;99.90;;;;;;6149638;23;20028;-71
2021/03/26 02:32:27;;;;;;;173.10;73.43;;;3.80;99.90;;;;;;6150623;23;20072;-71
2021/03/26 02:35:03;;;;;;;160.02;74.93;;;3.70;99.90;;;;;;6149849;23;20060;-71
2021/03/26 02:37:29;;;;;;;162.65;76.75;;;3.70;99.90;;;;;;6149309;23;20100;-71
2021/03/26 02:39:55;;;;;;;154.52;74.95;;;3.80;99.90;;;;;;6152990;23;20031;-71
2021/03/26 02:42:29;;;;;;;152.95;73.25;;;3.80;99.90;;;;;;6149575;23;20060;-71
2021/03/26 02:45:11;;;;;;;161.20;75.65;;;3.80;99.90;;;;;;6151717;23;20026;-71
2021/03/26 02:48:06;;;;;;;162.80;74.90;;;3.80;99.90;;;;;;6149683;23;20049;-71
2021/03/26 02:50:42;;;;;;;155.05;74.72;;;3.90;99.90;;;;;;6149754;23;20064;-71
2021/03/26 02:54:01;;;;;;;159.05;74.72;;;3.90;99.90;;;;;;6149577;23;20037;-71
2021/03/26 02:56:43;;;;;;;166.65;76.88;;;3.90;99.90;;;;;;6128496;23;20091;-71
2021/03/26 02:59:25;;;;;;;154.45;73.97;;;3.80;99.90;;;;;;6149318;23;20045;-71
2021/03/26 03:01:56;;;;;;;154.10;71.18;;;3.80;99.90;;;;;;6150111;23;20056;-71
2021/03/26 03:04:32;;;;;;;157.65;70.60;;;3.80;99.90;;;;;;6149486;23;20045;-71
2021/03/26 03:07:03;;;;;;;162.07;73.78;;;3.80;99.90;;;;;;6150834;23;20022;-71
2021/03/26 03:09:52;;;;;;;149.57;71.78;;;3.70;99.90;;;;;;6149638;23;20018;-71
2021/03/26 03:12:29;;;;;;;134.93;67.13;;;3.70;99.90;;;;;;6149245;23;20025;-71
2021/03/26 03:15:07;;;;;;;140.43;66.85;;;3.60;99.90;;;;;;6150997;23;20152;-71
2021/03/26 03:17:55;;;;;;;139.75;66.22;;;3.70;99.90;;;;;;6149403;23;20037;-71
2021/03/26 03:20:50;;;;;;;143.80;66.50;;;3.70;99.90;;;;;;6149057;23;20057;-71
2021/03/26 03:23:58;;;;;;;147.55;68.43;;;3.70;99.90;;;;;;6149996;23;20115;-71
2021/03/26 03:26:50;;;;;;;151.15;72.47;;;3.70;99.90;;;;;;6149173;23;20025;-71
2021/03/26 03:29:34;;;;;;;169.40;76.50;;;3.70;99.90;;;;;;6149373;23;20021;-70
2021/03/26 03:32:20;;;;;;;160.25;72.65;;;3.70;99.90;;;;;;6149062;23;20053;-71
2021/03/26 03:35:17;;;;;;;157.55;72.05;;;3.70;99.90;;;;;;6152071;23;20462;-71
2021/03/26 03:38:24;;;;;;;158.82;72.53;;;3.70;99.90;;;;;;6142434;23;20134;-71
2021/03/26 03:40:56;;;;;;;155.00;71.57;;;3.70;99.90;;;;;;6151562;23;20097;-71
2021/03/26 03:44:13;;;;;;;145.23;69.03;;;3.80;99.90;;;;;;6147281;23;20056;-71
2021/03/26 03:47:03;;;;;;;145.60;66.13;;;3.70;99.90;;;;;;6065353;23;20030;-71
2021/03/26 03:50:01;;;;;;;144.73;66.65;;;3.70;99.90;;;;;;6149992;23;20048;-71
2021/03/26 03:52:40;;;;;;;147.68;68.00;;;3.70;99.90;;;;;;6150714;23;20488;-71
2021/03/26 03:55:23;;;;;;;143.30;65.72;;;3.80;99.90;;;;;;6148676;23;20049;-71
2021/03/26 03:58:07;;;;;;;145.65;64.20;;;3.80;99.90;;;;;;6151892;23;20022;-71
2021/03/26 04:00:38;;;;;;;127.78;59.88;;;3.60;99.90;;;;;;6148789;23;20096;-71
2021/03/26 04:03:18;;;;;;;137.88;64.03;;;3.50;99.90;;;;;;6150888;23;20025;-71
2021/03/26 04:05:55;;;;;;;134.35;63.17;;;3.50;99.90;;;;;;6150436;23;20064;-71
2021/03/26 04:08:42;;;;;;;139.05;62.97;;;3.60;99.90;;;;;;6127481;23;20364;-71
2021/03/26 04:11:36;;;;;;;135.50;62.25;;;3.60;99.90;;;;;;6150016;23;20025;-71
2021/03/26 04:14:35;;;;;;;138.70;60.28;;;3.60;99.90;;;;;;6157467;23;20128;-71
2021/03/26 04:17:28;;;;;;;143.90;64.72;;;3.40;99.90;;;;;;6180175;23;20053;-71
2021/03/26 04:20:20;;;;;;;137.45;65.05;;;3.40;99.90;;;;;;6153610;23;20021;-71
2021/03/26 04:22:51;;;;;;;149.13;65.70;;;3.50;99.90;;;;;;6153588;23;20098;-71
2021/03/26 04:25:30;;;;;;;;;;;3.40;99.90;;;;;;6154293;23;20051;-71
2021/03/26 04:28:25;;;;;;;148.63;63.78;;;3.40;99.90;;;;;;6179847;23;19956;-71
2021/03/26 04:31:27;;;;;;;152.60;67.68;;;3.50;99.90;;;;;;6178941;23;20056;-71
2021/03/26 04:34:03;;;;;;;154.48;69.22;;;3.40;99.90;;;;;;6153749;23;20387;-71
2021/03/26 04:36:46;;;;;;;159.13;70.15;;;3.40;99.90;;;;;;6180303;23;20096;-71
2021/03/26 04:39:36;;;;;;;155.15;68.50;;;3.50;99.90;;;;;;6178178;23;20041;-71
2021/03/26 04:42:17;;;;;;;157.38;68.85;;;3.50;99.90;;;;;;6178940;23;20163;-71
2021/03/26 04:44:58;;;;;;;157.77;70.55;;;3.40;99.90;;;;;;6153745;23;20100;-71
2021/03/26 04:47:58;;;;;;;156.63;69.30;;;3.30;99.90;;;;;;6153742;23;20474;-71
2021/03/26 04:51:16;;;;;;;154.10;68.60;;;3.30;99.90;;;;;;6179618;23;20013;-71
2021/03/26 04:54:25;;;;;;;145.90;64.63;;;3.40;99.90;;;;;;6090390;23;20103;-70
2021/03/26 04:57:31;;;;;;;161.13;70.30;;;3.30;99.90;;;;;;6153013;23;20455;-71
2021/03/26 05:00:05;;;;;;;147.60;68.68;;;3.30;99.90;;;;;;6148216;23;20040;-71
2021/03/26 05:02:35;;;;;;;150.82;68.95;;;3.30;99.90;;;;;;6153271;23;20104;-70
2021/03/26 05:05:05;;;;;;;155.43;66.80;;;3.30;99.90;;;;;;6181132;23;20359;-71
2021/03/26 05:07:54;;;;;;;145.88;65.22;;;3.30;99.90;;;;;;6177598;23;20048;-71
2021/03/26 05:10:24;;;;;;;146.10;66.75;;;3.30;99.90;;;;;;6181166;23;20021;-71
2021/03/26 05:13:11;;;;;;;155.25;63.80;;;3.20;99.90;;;;;;6152890;23;20531;-71
2021/03/26 05:15:50;;;;;;;146.32;65.93;;;3.30;99.90;;;;;;6156431;23;20031;-71
2021/03/26 05:18:35;;;;;;;134.93;61.65;;;3.30;99.90;;;;;;6153497;23;20059;-70
2021/03/26 05:21:45;;;;;;;137.73;64.72;;;3.40;99.90;;;;;;6155918;23;20025;-71
2021/03/26 05:24:49;;;;;;;141.80;62.80;;;3.40;99.90;;;;;;6031312;23;20406;-71
2021/03/26 05:27:36;;;;;;;145.80;63.58;;;3.50;99.90;;;;;;6168087;23;20107;-71
2021/03/26 05:30:04;;;;;;;141.57;66.60;;;3.50;99.90;;;;;;6177770;23;20055;-71
2021/03/26 05:32:51;;;;;;;142.13;63.38;;;3.50;99.90;;;;;;6152727;23;20020;-71
2021/03/26 05:35:40;;;;;;;143.30;65.13;;;3.60;99.90;;;;;;6178609;23;20041;-71
2021/03/26 05:38:31;;;;;;;146.90;63.22;;;3.80;99.90;;;;;;6177761;23;20021;-71
2021/03/26 05:41:57;;;;;;;146.45;63.05;;;4.00;99.90;;;;;;6157449;23;20060;-70
2021/03/26 05:45:06;;;;;;;139.60;63.88;;;4.10;99.90;;;;;;6096925;23;20109;-72
2021/03/26 05:48:11;;;;;;;134.70;62.25;;;4.40;99.90;;;;;;6178817;23;20553;-72
2021/03/26 05:50:53;;;;;;;140.50;62.95;;;4.70;99.90;;;;;;6152391;23;20025;-71
2021/03/26 05:53:48;;;;;;;137.65;62.78;;;4.80;99.90;;;;;;6152626;23;20052;-72
2021/03/26 05:56:51;;;;;;;133.57;61.05;;;5.20;99.90;;;;;;6155932;23;20072;-71
2021/03/26 06:00:09;;;;;;;133.18;61.58;;;5.60;99.90;;;;;;6148470;23;20021;-72
2021/03/26 06:03:05;;;;;;;137.10;64.68;;;6.00;99.90;;;;;;6153209;23;20025;-72
2021/03/26 06:06:25;;;;;;;130.15;60.53;;;6.70;99.90;;;;;;6179186;23;20025;-71
2021/03/26 06:09:10;;;;;;;120.13;59.65;;;8.10;97.80;;;;;;6182388;23;20095;-72
2021/03/26 06:12:03;;;;;;;126.68;60.95;;;9.90;89.50;;;;;;6178654;23;20119;-72
2021/03/26 06:15:29;;;;;;;114.68;57.65;;;11.20;78.40;;;;;;6179326;23;20028;-71
2021/03/26 06:18:39;;;;;;;120.75;60.67;;;12.30;68.30;;;;;;6179382;23;20099;-71
2021/03/26 06:21:44;;;;;;;107.70;55.67;;;13.10;65.40;;;;;;6178340;23;20033;-70
2021/03/26 06:25:09;;;;;;;110.55;56.30;;;13.70;61.90;;;;;;6178789;23;20029;-72
2021/03/26 06:27:54;;;;;;;99.22;55.85;;;14.30;59.40;;;;;;6152588;23;20075;-68
2021/03/26 06:30:52;;;;;;;102.88;55.03;;;14.70;58.00;;;;;;6178666;23;20032;-70
2021/03/26 06:33:56;;;;;;;110.78;58.47;;;15.20;56.00;;;;;;6177772;23;20087;-66
2021/03/26 06:36:39;;;;;;;109.03;59.42;;;15.80;54.10;;;;;;6130047;23;20417;-67
2021/03/26 06:39:26;;;;;;;107.82;59.33;;;16.50;51.90;;;;;;6184871;23;20087;-68
2021/03/26 06:41:58;;;;;;;110.95;61.78;;;16.90;51.40;;;;;;6180410;23;20041;-66
2021/03/26 06:44:49;;;;;;;105.60;59.97;;;17.40;50.10;;;;;;6180428;23;20029;-65
2021/03/26 06:47:53;;;;;;;105.50;60.75;;;18.00;48.60;;;;;;6180806;23;20041;-67
2021/03/26 06:50:22;;;;;;;;;;;18.40;48.00;;;;;;6182528;23;20359;-68
2021/03/26 06:53:08;;;;;;;106.85;60.63;;;18.70;46.50;;;;;;6178562;23;19916;-69
2021/03/26 06:55:58;;;;;;;106.78;61.90;;;18.90;45.40;;;;;;6134025;23;20534;-69
2021/03/26 06:58:48;;;;;;;101.95;61.88;;;19.30;44.90;;;;;;6180522;23;20056;-70
2021/03/26 07:01:50;;;;;;;94.75;61.17;;;19.00;45.00;;;;;;6182122;23;20490;-70
2021/03/26 07:04:35;;;;;;;100.60;59.30;;;19.40;44.10;;;;;;6180777;23;20051;-70
2021/03/26 07:07:16;;;;;;;95.65;59.60;;;19.40;43.60;;;;;;6184695;23;20021;-69
2021/03/26 07:10:16;;;;;;;101.55;60.90;;;19.50;43.20;;;;;;6180504;23;20400;-70
2021/03/26 07:13:30;;;;;;;96.55;60.42;;;20.10;43.00;;;;;;6180637;23;20020;-69
2021/03/26 07:16:47;;;;;;;103.30;61.30;;;20.80;41.60;;;;;;6090412;23;20545;-69
2021/03/26 07:19:30;;;;;;;99.15;62.00;;;21.50;41.10;;;;;;6037437;23;20453;-70
2021/03/26 07:22:44;;;;;;;97.85;61.20;;;21.90;39.40;;;;;;6168312;23;20049;-70
2021/03/26 07:25:38;;;;;;;89.90;58.80;;;22.30;38.70;;;;;;6089857;23;20041;-70
2021/03/26 07:28:45;;;;;;;91.22;59.40;;;22.60;37.40;;;;;;6119401;23;20025;-70
2021/03/26 07:31:48;;;;;;;87.00;58.03;;;23.00;37.40;;;;;;6153115;23;20025;-70
2021/03/26 07:34:24;;;;;;;98.10;60.75;;;22.70;36.70;;;;;;6180752;23;20102;-70
2021/03/26 07:36:58;;;;;;;90.53;58.88;;;22.80;37.10;;;;;;6180418;23;20028;-70
2021/03/26 07:39:42;;;;;;;95.97;61.78;;;22.90;36.90;;;;;;6180342;23;20068;-70
2021/03/26 07:42:43;;;;;;;112.65;62.53;;;23.00;36.80;;;;;;6180401;23;20043;-70
2021/03/26 07:45:28;;;;;;;85.35;58.92;;;23.40;36.10;;;;;;6107076;23;20066;-65
2021/03/26 07:48:27;;;;;;;94.55;59.00;;;23.70;37.20;;;;;;6182578;23;20071;-68
2021/03/26 07:51:02;;;;;;;91.15;60.45;;;24.70;37.20;;;;;;6154280;23;20044;-64
2021/03/26 07:54:12;;;;;;;96.18;61.70;;;25.50;35.80;;;;;;6183426;23;20107;-66
2021/03/26 07:56:57;;;;;;;92.15;61.75;;;25.90;35.10;;;;;;6124563;23;20020;-67
2021/03/26 07:59:53;;;;;;;94.63;60.85;;;26.20;34.30;;;;;;6154691;23;20017;-67
2021/03/26 08:02:40;;;;;;;109.05;64.50;;;26.60;33.50;;;;;;6153567;23;20048;-67
2021/03/26 08:05:28;;;;;;;94.85;63.47;;;26.90;32.80;;;;;;6183849;23;20024;-68
2021/03/26 08:08:49;;;;;;;95.75;63.33;;;27.20;32.40;;;;;;6179553;23;20055;-66
2021/03/26 08:11:33;;;;;;;104.35;64.05;;;27.20;32.20;;;;;;6074631;23;20031;-66
2021/03/26 08:14:44;;;;;;;104.68;66.68;;;27.40;32.50;;;;;;6153783;23;20056;-66
2021/03/26 08:17:31;;;;;;;97.95;61.45;;;27.70;32.00;;;;;;6059645;23;20027;-68
2021/03/26 08:20:13;;;;;;;94.00;62.65;;;26.30;32.80;;;;;;6171906;23;20024;-70
2021/03/26 08:22:54;;;;;;;88.18;62.03;;;26.70;32.70;;;;;;6181748;23;20021;-72
2021/03/26 08:25:42;;;;;;;90.05;62.28;;;27.20;31.90;;;;;;6180034;23;20048;-72
2021/03/26 08:28:15;;;;;;;86.70;60.30;;;27.40;31.80;;;;;;6181385;23;20025;-69
2021/03/26 08:31:04;;;;;;;78.47;57.40;;;27.50;31.10;;;;;;6179982;23;20048;-79
2021/03/26 08:33:56;;;;;;;84.80;56.05;;;27.10;31.30;;;;;;6124983;23;20033;-72
2021/03/26 08:36:31;;;;;;;81.82;56.70;;;28.10;30.80;;;;;;6179625;23;20049;-75
2021/03/26 08:39:24;;;;;;;76.30;52.55;;;28.80;30.50;;;;;;6181038;23;20116;-70
2021/03/26 08:41:59;;;;;;;64.85;46.60;;;29.60;29.40;;;;;;6154440;23;20064;-74
2021/03/26 08:44:28;;;;;;;68.85;50.03;;;30.30;29.50;;;;;;6153594;23;20410;-74
2021/03/26 08:46:57;;;;;;;67.18;49.22;;;30.80;28.80;;;;;;6153025;23;20099;-75
2021/03/26 08:49:23;;;;;;;72.82;49.03;;;31.00;28.50;;;;;;6179982;23;20363;-75
2021/03/26 08:52:14;;;;;;;67.75;46.65;;;30.80;28.60;;;;;;6153792;23;20464;-75
2021/03/26 08:55:02;;;;;;;57.90;43.47;;;30.90;28.20;;;;;;6153313;23;20028;-77
2021/03/26 08:58:02;;;;;;;65.93;47.50;;;31.00;28.50;;;;;;6179291;23;20080;-78
2021/03/26 09:00:50;;;;;;;58.05;42.72;;;30.90;28.40;;;;;;6153189;23;20509;-76
2021/03/26 09:03:40;;;;;;;58.03;43.22;;;30.20;28.40;;;;;;6182220;23;20407;-73
2021/03/26 09:06:29;;;;;;;56.35;42.35;;;28.80;29.20;;;;;;6179497;23;20049;-76
2021/03/26 09:09:40;;;;;;;52.47;39.67;;;28.40;29.60;;;;;;6154600;23;20370;-75
2021/03/26 09:12:09;;;;;;;46.92;36.08;;;29.20;29.00;;;;;;6079340;23;20053;-77
2021/03/26 09:14:40;;;;;;;51.25;36.63;;;29.30;29.20;;;;;;6146760;23;20415;-77
2021/03/26 09:17:19;;;;;;;50.13;38.07;;;29.50;28.80;;;;;;6151088;23;20337;-76
2021/03/26 09:20:02;;;;;;;47.63;37.50;;;28.30;30.00;;;;;;6123342;23;20466;-76
2021/03/26 09:22:49;;;;;;;40.45;34.58;;;29.00;29.10;;;;;;6126294;23;20021;-76
2021/03/26 09:25:24;;;;;;;45.42;35.63;;;29.50;28.70;;;;;;6148397;23;20049;-71
2021/03/26 09:27:58;;;;;;;44.50;35.38;;;29.90;28.40;;;;;;6149722;23;20351;-73
2021/03/26 09:30:53;;;;;;;45.38;34.90;;;28.90;28.40;;;;;;6146557;23;20459;-70
2021/03/26 09:33:20;;;;;;;46.95;35.20;;;28.60;29.10;;;;;;6150386;23;20021;-72
2021/03/26 09:35:53;;;;;;;45.05;34.95;;;28.80;28.80;;;;;;6149459;23;20064;-73
2021/03/26 09:38:30;;;;;;;42.85;34.83;;;29.50;28.40;;;;;;6151239;23;20058;-71
2021/03/26 09:41:07;;;;;;;47.55;36.17;;;30.00;28.10;;;;;;6148906;23;20103;-72
2021/03/26 09:43:50;;;;;;;45.13;35.55;;;30.10;28.00;;;;;;6149795;23;20337;-72
2021/03/26 09:46:37;;;;;;;45.15;35.00;;;29.20;28.40;;;;;;6149667;23;20100;-72
2021/03/26 09:49:21;;;;;;;46.53;32.60;;;29.60;28.40;;;;;;6172573;23;20021;-72
2021/03/26 09:52:11;;;;;;;48.05;34.20;;;30.60;28.40;;;;;;6149367;23;20048;-72
2021/03/26 09:54:44;;;;;;;38.50;32.50;;;31.30;27.70;;;;;;6153013;23;20036;-77
2021/03/26 09:57:22;;;;;;;43.97;33.40;;;31.00;27.10;;;;;;6123183;23;20095;-70
2021/03/26 10:00:01;;;;;;;40.28;30.30;;;30.70;28.20;;;;;;6149124;23;20013;-73
2021/03/26 10:02:56;;;;;;;37.80;29.15;;;30.40;27.60;;;;;;6147579;23;20025;-77
2021/03/26 10:05:31;;;;;;;37.72;30.25;;;30.40;27.80;;;;;;6151584;23;20455;-71
2021/03/26 10:11:11;;;;;;;42.10;28.35;;;30.90;27.70;;;;;;6144302;23;20097;-72
2021/03/26 10:13:57;;;;;;;38.20;30.23;;;31.20;27.40;;;;;;6180269;23;20059;-71
2021/03/26 10:16:55;;;;;;;46.65;32.28;;;31.80;27.20;;;;;;6181881;23;20021;-71
2021/03/26 10:19:51;;;;;;;46.10;33.45;;;31.90;27.10;;;;;;6143606;23;20052;-69
2021/03/26 10:22:50;;;;;;;44.35;28.73;;;31.70;26.80;;;;;;6160357;23;20021;-65
2021/03/26 10:25:29;;;;;;;36.28;26.85;;;31.60;27.00;;;;;;6181001;23;20157;-66
2021/03/26 10:28:10;;;;;;;35.40;25.92;;;31.30;26.80;;;;;;6181639;23;20025;-75
2021/03/26 10:30:42;;;;;;;41.08;28.30;;;31.00;27.60;;;;;;6130050;23;20463;-69
2021/03/26 10:33:11;;;;;;;32.05;26.33;;;30.80;27.30;;;;;;6153691;23;20364;-66
2021/03/26 10:35:47;;;;;;;38.40;27.77;;;30.80;28.00;;;;;;6178863;23;20096;-67
2021/03/26 10:38:19;;;;;;;33.50;28.60;;;30.90;27.90;;;;;;6154317;23;20025;-68
2021/03/26 10:40:57;;;;;;;37.88;28.77;;;30.60;27.60;;;;;;6178660;23;20096;-68
2021/03/26 10:43:30;;;;;;;36.53;26.85;;;30.40;27.40;;;;;;6180553;23;20020;-72
2021/03/26 10:46:15;;;;;;;38.33;27.63;;;30.30;27.90;;;;;;6178198;23;20053;-75
2021/03/26 10:48:58;;;;;;;36.20;27.90;;;29.70;27.60;;;;;;6179132;23;20032;-68
2021/03/26 10:51:31;;;;;;;33.47;25.63;;;29.20;28.50;;;;;;6178738;23;20126;-81
2021/03/26 10:54:03;;;;;;;36.85;28.65;;;29.20;28.80;;;;;;6156656;23;20021;-75
2021/03/26 10:56:36;;;;;;;33.95;27.63;;;29.80;27.90;;;;;;6129706;23;20017;-79
2021/03/26 10:59:11;;;;;;;34.17;26.17;;;29.50;27.90;;;;;;6183397;23;20079;-78
2021/03/26 11:01:42;;;;;;;42.15;25.70;;;29.30;28.40;;;;;;6152673;23;20059;-74
2021/03/26 11:04:30;;;;;;;33.13;24.40;;;29.10;28.30;;;;;;6183297;23;20025;-75
2021/03/26 11:07:24;;;;;;;30.27;24.38;;;28.70;28.20;;;;;;6154358;23;20107;-76
2021/03/26 11:09:56;;;;;;;31.00;24.02;;;28.60;28.00;;;;;;6154822;23;20204;-73
2021/03/26 11:12:43;;;;;;;33.22;24.30;;;27.90;28.10;;;;;;6180492;23;20088;-74
2021/03/26 11:15:17;;;;;;;32.15;24.33;;;27.90;28.30;;;;;;6155376;23;20399;-75
2021/03/26 11:18:06;;;;;;;31.38;24.17;;;27.70;28.40;;;;;;6180680;23;20044;-74
2021/03/26 11:20:39;;;;;;;34.65;24.17;;;27.30;28.80;;;;;;6153021;23;20024;-75
2021/03/26 11:23:27;;;;;;;35.25;22.38;;;27.00;29.10;;;;;;6154408;23;20853;-73
2021/03/26 11:26:05;;;;;;;27.40;21.98;;;26.70;29.50;;;;;;6180281;23;20048;-73
2021/03/26 11:28:46;;;;;;;45.75;25.45;;;26.90;29.30;;;;;;6129546;23;20048;-77
2021/03/26 11:31:24;;;;;;;42.28;26.20;;;26.70;29.00;;;;;;6133653;23;20044;-72
2021/03/26 11:33:57;;;;;;;34.08;23.75;;;26.30;29.50;;;;;;6128269;23;20053;-75
2021/03/26 11:36:23;;;;;;;28.40;22.52;;;25.90;30.00;;;;;;6178464;23;20490;-76
2021/03/26 11:39:06;;;;;;;38.22;23.15;;;25.60;29.90;;;;;;6183188;23;20021;-72
2021/03/26 11:41:42;;;;;;;30.42;20.92;;;25.20;30.00;;;;;;6178714;23;20104;-70
2021/03/26 11:44:13;;;;;;;33.25;23.63;;;25.10;30.10;;;;;;6155486;23;20402;-70
2021/03/26 11:46:51;;;;;;;35.13;22.55;;;24.90;30.80;;;;;;6153718;23;20452;-70
2021/03/26 11:49:22;;;;;;;39.22;22.73;;;24.70;31.40;;;;;;6157091;23;20025;-75
2021/03/26 11:52:13;;;;;;;31.53;22.67;;;24.50;31.70;;;;;;6180161;23;20094;-77
2021/03/26 11:55:03;;;;;;;36.80;24.70;;;24.30;31.60;;;;;;6182776;23;20973;-70
2021/03/26 11:57:41;;;;;;;32.00;23.77;;;24.00;31.70;;;;;;6178852;23;20020;-68
2021/03/26 12:00:23;;;;;;;30.60;22.42;;;23.50;32.00;;;;;;6181595;23;20017;-67
2021/03/26 12:03:13;;;;;;;34.25;22.27;;;23.10;32.60;;;;;;6180097;23;20148;-71
2021/03/26 12:05:58;;;;;;;40.17;21.35;;;22.60;33.20;;;;;;6179826;23;20017;-71
2021/03/26 12:08:45;;;;;;;35.50;22.15;;;22.20;34.70;;;;;;6179846;23;20040;-71
2021/03/26 12:11:19;;;;;;;50.15;22.38;;;22.10;34.50;;;;;;6183661;23;20350;-71
2021/03/26 12:14:07;;;;;;;28.23;18.63;;;21.70;34.70;;;;;;6179950;23;20052;-70
2021/03/26 12:16:40;;;;;;;28.05;17.35;;;21.70;35.00;;;;;;6181360;23;20032;-71
2021/03/26 12:19:16;;;;;;;29.80;18.15;;;21.90;35.20;;;;;;6153324;23;20148;-70
2021/03/26 12:21:48;;;;;;;28.88;16.95;;;22.10;34.90;;;;;;6183231;23;20021;-70
2021/03/26 12:24:52;;;;;;;24.55;17.95;;;22.10;34.20;;;;;;6179869;23;20059;-69
2021/03/26 12:27:32;;;;;;;24.67;17.23;;;21.90;33.80;;;;;;6036495;23;20031;-71
2021/03/26 12:30:01;;;;;;;19.85;17.30;;;21.30;35.20;;;;;;6166194;23;20044;-75
2021/03/26 12:32:48;;;;;;;23.05;17.13;;;21.20;35.20;;;;;;6154591;23;20059;-72
2021/03/26 12:35:21;;;;;;;26.00;18.98;;;21.20;35.70;;;;;;6151675;23;20063;-71
2021/03/26 12:37:50;;;;;;;;;;;20.60;36.80;;;;;;6180444;23;20024;-71
2021/03/26 12:40:43;;;;;;;31.95;18.20;;;20.00;36.90;;;;;;6177395;23;20015;-72
2021/03/26 12:43:24;;;;;;;25.73;16.38;;;19.70;38.30;;;;;;6152000;23;20017;-71
2021/03/26 12:46:01;;;;;;;24.25;15.52;;;19.50;37.80;;;;;;6179573;23;20044;-72
2021/03/26 12:48:42;;;;;;;25.20;16.15;;;19.00;37.60;;;;;;6155131;23;20346;-75
2021/03/26 12:51:11;;;;;;;29.00;15.05;;;18.60;38.90;;;;;;6179441;23;20025;-74
2021/03/26 12:53:59;;;;;;;28.88;15.35;;;18.60;39.10;;;;;;6181328;23;20017;-78
2021/03/26 12:57:16;;;;;;;35.90;14.13;;;18.80;39.70;;;;;;6139629;23;20099;-76
2021/03/26 12:59:52;;;;;;;24.30;14.27;;;19.40;39.70;;;;;;6177704;23;20047;-76
2021/03/26 13:02:34;;;;;;;17.80;12.93;;;19.80;37.60;;;;;;6152887;23;20541;-69
2021/03/26 13:05:05;;;;;;;21.90;13.48;;;20.00;37.60;;;;;;6182474;23;20573;-68
2021/03/26 13:07:44;;;;;;;21.65;13.20;;;20.40;36.60;;;;;;6152950;23;20056;-69
2021/03/26 13:10:48;;;;;;;31.20;15.05;;;20.40;36.40;;;;;;6182596;23;20025;-69
2021/03/26 13:13:36;;;;;;;29.27;14.38;;;20.40;36.90;;;;;;6179594;23;20471;-69
2021/03/26 13:16:26;;;;;;;30.85;13.30;;;20.30;37.10;;;;;;6179804;23;20467;-68
2021/03/26 13:19:01;;;;;;;31.75;13.80;;;20.40;36.70;;;;;;6179221;23;20096;-69
2021/03/26 13:21:44;;;;;;;24.95;13.40;;;20.40;36.80;;;;;;6183419;23;20066;-68
2021/03/26 13:24:13;;;;;;;20.52;14.52;;;20.20;37.00;;;;;;6179427;23;20535;-69
2021/03/26 13:26:40;;;;;;;20.05;13.48;;;19.90;36.70;;;;;;6179477;23;20785;-69
2021/03/26 13:29:24;;;;;;;21.55;13.25;;;19.70;36.40;;;;;;6177952;23;20439;-68
2021/03/26 13:31:53;;;;;;;20.27;12.88;;;19.30;36.90;;;;;;6183713;23;20017;-69
2021/03/26 13:34:26;;;;;;;19.23;10.52;;;19.10;37.20;;;;;;6128752;23;20446;-69
2021/03/26 13:37:18;;;;;;;16.92;10.57;;;19.00;37.10;;;;;;6178954;23;20029;-69
2021/03/26 13:40:00;;;;;;;18.90;12.30;;;19.00;37.30;;;;;;6152608;23;20091;-68
2021/03/26 13:42:35;;;;;;;22.38;12.77;;;19.20;37.20;;;;;;6182881;23;20463;-69
2021/03/26 13:45:07;;;;;;;19.00;12.27;;;19.30;38.10;;;;;;6182461;23;20053;-68
2021/03/26 13:47:57;;;;;;;28.42;13.57;;;19.30;38.40;;;;;;6186935;23;20363;-68
2021/03/26 13:50:27;;;;;;;28.88;14.20;;;19.50;38.80;;;;;;6182622;23;20102;-69